CLT weather

Charlotte Douglas International Airport
Charlotte, North Carolina, United States

Public forecast

Using degrees Fahrenheit for public forecast. Weather courtesy of forecast.io.

METAR (pilot weather report)

Retrieved 2018/10/17 01:52 UTC (53 minutes ago):

KCLT 170152Z 32003KT 9SM FEW005 SCT047 BKN060 21/20 A3013 RMK AO2 RAE20 SLP195 P0005 T02060200 $

TAF (pilot weather forecast)

Forecast is more than 12 hours old.

Retrieved 2018/10/16 00:42 UTC (1 day ago):

TAF KCLT 162341Z 1700/1806 VRB03KT P6SM VCSH SCT030 BKN050 TEMPO 1700/1701 VRB10G20KT 4SM -TSRA OVC025CB FM170400 VRB03KT P6SM OVC035 FM171000 32004KT 6SM BR SCT008 BKN015 OVC045 FM171400 35004KT P6SM BKN070 FM171800 32005KT P6SM SCT200